createdAt,value
2023-04-07T00:02:08.896Z,8.20
2023-04-07T00:04:35.763Z,8.10
2023-04-07T00:07:02.650Z,8.10
2023-04-07T00:09:29.399Z,8.10
2023-04-07T00:11:56.259Z,8.10
2023-04-07T00:14:22.801Z,8.10
2023-04-07T00:16:49.552Z,8.10
2023-04-07T00:19:16.615Z,8.10
2023-04-07T00:21:43.294Z,8.10
2023-04-07T00:24:10.327Z,8.10
2023-04-07T00:26:37.451Z,8.10
2023-04-07T00:29:04.248Z,8.00
2023-04-07T00:31:31.218Z,8.10
2023-04-07T00:33:58.190Z,8.00
2023-04-07T00:36:24.833Z,8.00
2023-04-07T00:38:51.454Z,7.90
2023-04-07T00:41:18.230Z,8.00
2023-04-07T00:43:46.052Z,8.00
2023-04-07T00:46:12.759Z,7.90
2023-04-07T00:48:39.395Z,7.90
2023-04-07T00:51:07.242Z,8.00
2023-04-07T00:53:33.874Z,8.00
2023-04-07T00:56:00.679Z,7.90
2023-04-07T00:58:27.292Z,8.00
2023-04-07T01:01:05.752Z,7.90
2023-04-07T01:03:45.276Z,8.00
2023-04-07T01:06:16.471Z,7.90
2023-04-07T01:08:51.582Z,7.90
2023-04-07T01:11:41.186Z,7.90
2023-04-07T01:14:10.841Z,7.90
2023-04-07T01:16:52.410Z,7.90
2023-04-07T01:19:23.234Z,7.90
2023-04-07T01:21:52.217Z,7.80
2023-04-07T01:24:43.653Z,7.90
2023-04-07T01:27:29.221Z,7.90
2023-04-07T01:29:56.801Z,7.90
2023-04-07T01:32:27.041Z,7.80
2023-04-07T01:34:55.442Z,7.80
2023-04-07T01:37:23.542Z,7.70
2023-04-07T01:39:50.564Z,7.70
2023-04-07T01:42:21.980Z,7.70
2023-04-07T01:44:53.762Z,7.60
2023-04-07T01:47:20.812Z,7.70
2023-04-07T01:49:48.388Z,7.70
2023-04-07T01:52:16.375Z,7.70
2023-04-07T01:54:43.538Z,7.60
2023-04-07T01:57:11.057Z,7.60
2023-04-07T01:59:37.649Z,7.60
2023-04-07T02:02:04.589Z,7.60
2023-04-07T02:04:40.398Z,7.70
2023-04-07T02:07:15.651Z,7.60
2023-04-07T02:09:43.246Z,7.60
2023-04-07T02:12:12.904Z,7.70
2023-04-07T02:14:40.304Z,7.60
2023-04-07T02:17:07.091Z,7.60
2023-04-07T02:19:35.835Z,7.60
2023-04-07T02:22:04.821Z,7.60
2023-04-07T02:24:31.589Z,7.60
2023-04-07T02:27:00.824Z,7.60
2023-04-07T02:29:27.559Z,7.60
2023-04-07T02:31:54.238Z,7.60
2023-04-07T02:34:21.185Z,7.60
2023-04-07T02:36:47.886Z,7.60
2023-04-07T02:39:14.660Z,7.60
2023-04-07T02:41:41.348Z,7.60
2023-04-07T02:44:07.926Z,7.60
2023-04-07T02:46:35.084Z,7.60
2023-04-07T02:49:01.823Z,7.50
2023-04-07T02:51:28.888Z,7.60
2023-04-07T02:53:56.085Z,7.50
2023-04-07T02:56:22.985Z,7.50
2023-04-07T02:58:49.843Z,7.50
2023-04-07T03:01:16.620Z,7.50
2023-04-07T03:03:44.902Z,7.50
2023-04-07T03:06:11.903Z,7.50
2023-04-07T03:08:38.615Z,7.50
2023-04-07T03:11:05.542Z,7.60
2023-04-07T03:13:32.325Z,7.50
2023-04-07T03:15:58.995Z,7.60
2023-04-07T03:18:25.681Z,7.50
2023-04-07T03:20:52.897Z,7.60
2023-04-07T03:23:19.486Z,7.50
2023-04-07T03:25:47.565Z,7.50
2023-04-07T03:28:15.531Z,7.50
2023-04-07T03:30:42.181Z,7.50
2023-04-07T03:33:09.084Z,7.50
2023-04-07T03:35:35.962Z,7.60
2023-04-07T03:38:02.580Z,7.50
2023-04-07T03:40:29.469Z,7.50
2023-04-07T03:42:56.194Z,7.50
2023-04-07T03:45:22.782Z,7.50
2023-04-07T03:47:49.741Z,7.50
2023-04-07T03:50:16.370Z,7.50
2023-04-07T03:52:42.988Z,7.50
2023-04-07T03:55:10.061Z,7.40
2023-04-07T03:57:36.827Z,7.50
2023-04-07T04:00:05.388Z,7.50
2023-04-07T04:02:32.127Z,7.50
2023-04-07T04:04:58.873Z,7.50
2023-04-07T04:07:26.308Z,7.50
2023-04-07T04:09:52.916Z,7.50
2023-04-07T04:12:19.676Z,7.40
2023-04-07T04:14:46.839Z,7.40
2023-04-07T04:17:13.479Z,7.40
2023-04-07T04:19:40.235Z,7.40
2023-04-07T04:22:07.159Z,7.40
2023-04-07T04:24:34.006Z,7.50
2023-04-07T04:27:01.878Z,7.40
2023-04-07T04:29:28.511Z,7.50
2023-04-07T04:31:55.310Z,7.50
2023-04-07T04:34:21.939Z,7.50
2023-04-07T04:36:49.229Z,7.40
2023-04-07T04:39:16.011Z,7.40
2023-04-07T04:41:42.722Z,7.40
2023-04-07T04:44:09.575Z,7.40
2023-04-07T04:46:36.977Z,7.40
2023-04-07T04:49:03.695Z,7.40
2023-04-07T04:51:30.782Z,7.40
2023-04-07T04:53:57.319Z,7.40
2023-04-07T04:56:26.729Z,7.40
2023-04-07T04:58:55.556Z,7.50
2023-04-07T05:01:22.347Z,7.50
2023-04-07T05:03:50.307Z,7.50
2023-04-07T05:06:17.168Z,7.50
2023-04-07T05:08:43.930Z,7.50
2023-04-07T05:11:12.203Z,7.50
2023-04-07T05:13:38.867Z,7.50
2023-04-07T05:16:06.557Z,7.50
2023-04-07T05:18:33.564Z,7.50
2023-04-07T05:21:01.847Z,7.50
2023-04-07T05:23:28.623Z,7.50
2023-04-07T05:25:55.579Z,7.40
2023-04-07T05:28:22.628Z,7.50
2023-04-07T05:30:49.309Z,7.50
2023-04-07T05:33:20.643Z,7.40
2023-04-07T05:35:47.456Z,7.40
2023-04-07T05:38:14.661Z,7.50
2023-04-07T05:40:41.501Z,7.50
2023-04-07T05:43:08.217Z,7.50
2023-04-07T05:45:35.033Z,7.50
2023-04-07T05:50:31.381Z,7.50
2023-04-07T05:52:58.082Z,7.50
2023-04-07T05:55:24.791Z,7.50
2023-04-07T05:57:51.498Z,7.60
2023-04-07T06:00:19.709Z,7.60
2023-04-07T06:02:46.822Z,7.60
2023-04-07T06:05:14.079Z,7.60
2023-04-07T06:07:41.019Z,7.60
2023-04-07T06:10:08.390Z,7.60
2023-04-07T06:12:38.138Z,7.60
2023-04-07T06:15:05.048Z,7.60
2023-04-07T06:17:31.751Z,7.60
2023-04-07T06:19:58.409Z,7.60
2023-04-07T06:22:25.526Z,7.70
2023-04-07T06:24:52.859Z,7.70
2023-04-07T06:27:19.625Z,7.70
2023-04-07T06:29:46.304Z,7.70
2023-04-07T06:32:13.673Z,7.70
2023-04-07T06:34:40.544Z,7.70
2023-04-07T06:37:09.610Z,7.80
2023-04-07T06:42:35.759Z,7.80
2023-04-07T06:45:02.467Z,7.80
2023-04-07T06:47:29.348Z,7.70
2023-04-07T06:49:55.981Z,7.80
2023-04-07T06:52:22.944Z,7.80
2023-04-07T06:54:49.737Z,7.80
2023-04-07T06:57:16.390Z,7.70
2023-04-07T06:59:43.338Z,7.80
2023-04-07T07:02:10.137Z,7.70
2023-04-07T07:04:37.168Z,7.80
2023-04-07T07:07:04.140Z,7.70
2023-04-07T07:09:30.907Z,7.80
2023-04-07T07:11:57.673Z,7.70
2023-04-07T07:14:24.457Z,7.80
2023-04-07T07:16:51.273Z,7.80
2023-04-07T07:19:18.069Z,7.80
2023-04-07T07:21:44.865Z,7.80
2023-04-07T07:24:11.676Z,7.80
2023-04-07T07:26:38.372Z,7.70
2023-04-07T07:29:05.138Z,7.70
2023-04-07T07:31:32.031Z,7.80
2023-04-07T07:33:58.869Z,7.80
2023-04-07T07:36:26.671Z,7.80
2023-04-07T07:38:53.424Z,7.80
2023-04-07T07:41:21.076Z,7.90
2023-04-07T07:43:48.275Z,7.90
2023-04-07T07:46:15.455Z,8.10
2023-04-07T07:48:42.268Z,8.20
2023-04-07T07:51:11.875Z,8.20
2023-04-07T07:53:38.732Z,8.30
2023-04-07T07:56:05.475Z,8.30
2023-04-07T07:58:32.402Z,8.30
2023-04-07T08:00:58.993Z,8.30
2023-04-07T08:03:25.723Z,8.30
2023-04-07T08:05:52.513Z,8.30
2023-04-07T08:08:19.321Z,8.40
2023-04-07T08:10:46.213Z,8.50
2023-04-07T08:13:12.818Z,8.30
2023-04-07T08:15:40.587Z,8.20
2023-04-07T08:18:07.778Z,8.20
2023-04-07T08:20:34.567Z,8.20
2023-04-07T08:23:04.114Z,8.20
2023-04-07T08:25:31.190Z,8.20
2023-04-07T08:27:58.052Z,8.10
2023-04-07T08:30:24.817Z,8.20
2023-04-07T08:32:51.728Z,8.20
2023-04-07T08:35:19.429Z,8.20
2023-04-07T08:37:46.439Z,8.20
2023-04-07T08:40:15.341Z,8.30
2023-04-07T08:42:46.398Z,8.20
2023-04-07T08:45:15.111Z,8.20
2023-04-07T08:47:43.220Z,8.20
2023-04-07T08:50:14.103Z,8.30
2023-04-07T08:52:48.629Z,8.40
2023-04-07T08:55:15.759Z,8.40
2023-04-07T08:57:43.235Z,8.40
2023-04-07T09:00:10.701Z,8.50
2023-04-07T09:02:47.889Z,8.40
2023-04-07T09:05:14.837Z,8.50
2023-04-07T09:07:43.145Z,8.50
2023-04-07T09:10:10.459Z,8.50
2023-04-07T09:12:37.686Z,8.50
2023-04-07T09:15:06.656Z,8.50
2023-04-07T09:17:33.428Z,8.70
2023-04-07T09:20:01.004Z,8.80
2023-04-07T09:22:39.616Z,8.80
2023-04-07T09:25:13.962Z,8.90
2023-04-07T09:27:40.928Z,9.00
2023-04-07T09:30:15.571Z,9.00
2023-04-07T09:32:42.624Z,9.00
2023-04-07T09:35:09.907Z,9.10
2023-04-07T09:37:37.340Z,9.20
2023-04-07T09:40:04.632Z,9.10
2023-04-07T09:42:35.918Z,9.10
2023-04-07T09:45:03.069Z,9.10
2023-04-07T09:47:32.740Z,9.10
2023-04-07T09:50:06.342Z,9.20
2023-04-07T09:52:54.579Z,9.10
2023-04-07T09:55:23.245Z,9.20
2023-04-07T09:57:55.330Z,9.20
2023-04-07T10:00:22.292Z,9.20
2023-04-07T10:02:51.455Z,9.20
2023-04-07T10:05:20.956Z,9.10
2023-04-07T10:07:48.172Z,9.10
2023-04-07T10:10:14.892Z,9.10
2023-04-07T10:12:42.135Z,9.20
2023-04-07T10:15:13.523Z,9.10
2023-04-07T10:17:45.517Z,9.10
2023-04-07T10:20:13.345Z,9.00
2023-04-07T10:22:42.488Z,9.00
2023-04-07T10:25:12.096Z,9.00
2023-04-07T10:28:00.610Z,9.00
2023-04-07T10:30:30.889Z,9.00
2023-04-07T10:32:57.816Z,9.00
2023-04-07T10:35:24.765Z,9.10
2023-04-07T10:38:16.591Z,9.10
2023-04-07T10:40:43.679Z,9.10
2023-04-07T10:43:14.841Z,9.10
2023-04-07T10:45:52.212Z,9.10
2023-04-07T10:48:20.172Z,9.00
2023-04-07T10:51:08.339Z,8.90
2023-04-07T10:53:38.365Z,8.90
2023-04-07T10:56:05.760Z,9.00
2023-04-07T10:58:33.258Z,9.10
2023-04-07T11:01:14.937Z,9.10
2023-04-07T11:03:52.034Z,9.00
2023-04-07T11:06:18.860Z,9.10
2023-04-07T11:08:49.276Z,9.00
2023-04-07T11:11:20.794Z,9.00
2023-04-07T11:13:49.584Z,9.00
2023-04-07T11:16:19.729Z,8.90
2023-04-07T11:18:50.874Z,9.00
2023-04-07T11:21:19.180Z,9.00
2023-04-07T11:23:47.777Z,9.10
2023-04-07T11:26:16.253Z,9.10
2023-04-07T11:28:53.884Z,9.20
2023-04-07T11:31:33.691Z,9.10
2023-04-07T11:34:05.211Z,9.10
2023-04-07T11:36:40.080Z,9.00
2023-04-07T11:39:18.530Z,9.00
2023-04-07T11:41:50.559Z,9.10
2023-04-07T11:44:17.503Z,9.10
2023-04-07T11:46:58.545Z,9.10
2023-04-07T11:49:28.735Z,9.10
2023-04-07T11:52:04.437Z,9.10
2023-04-07T11:54:47.965Z,9.10
2023-04-07T11:57:23.302Z,9.10
2023-04-07T11:59:50.024Z,9.20
2023-04-07T12:02:33.815Z,9.30
2023-04-07T12:05:00.664Z,9.30
2023-04-07T12:07:31.190Z,9.30
2023-04-07T12:10:16.953Z,9.30
2023-04-07T12:12:46.155Z,9.30
2023-04-07T12:15:15.937Z,9.30
2023-04-07T12:17:47.449Z,9.40
2023-04-07T12:20:15.864Z,9.50
2023-04-07T12:22:42.758Z,9.60
2023-04-07T12:25:09.522Z,9.60
2023-04-07T12:27:43.763Z,9.50
2023-04-07T12:30:11.607Z,9.70
2023-04-07T12:32:41.174Z,9.80
2023-04-07T12:35:11.010Z,9.90
2023-04-07T12:37:37.862Z,10.00
2023-04-07T12:40:11.060Z,10.00
2023-04-07T12:42:37.712Z,10.00
2023-04-07T12:45:04.924Z,10.00
2023-04-07T12:47:32.175Z,10.10
2023-04-07T12:49:59.027Z,10.30
2023-04-07T12:52:25.719Z,10.20
2023-04-07T12:54:53.260Z,10.20
2023-04-07T12:57:19.977Z,10.20
2023-04-07T12:59:46.560Z,10.20
2023-04-07T13:02:13.860Z,10.30
2023-04-07T13:04:43.382Z,10.30
2023-04-07T13:07:11.696Z,10.20
2023-04-07T13:09:38.890Z,10.10
2023-04-07T13:12:05.444Z,10.20
2023-04-07T13:14:32.265Z,10.20
2023-04-07T13:16:58.952Z,10.30
2023-04-07T13:19:25.718Z,10.30
2023-04-07T13:21:52.692Z,10.50
2023-04-07T13:24:21.185Z,10.60
2023-04-07T13:26:51.527Z,10.60
2023-04-07T13:29:21.333Z,10.70
2023-04-07T13:31:50.686Z,10.60
2023-04-07T13:34:17.416Z,10.80
2023-04-07T13:36:44.157Z,10.80
2023-04-07T13:39:10.795Z,10.80
2023-04-07T13:41:37.475Z,10.80
2023-04-07T13:44:04.238Z,10.80
2023-04-07T13:46:31.129Z,10.90
2023-04-07T13:48:57.806Z,10.90
2023-04-07T13:51:24.481Z,10.90
2023-04-07T13:53:51.273Z,10.80
2023-04-07T13:56:17.994Z,10.90
2023-04-07T13:58:44.793Z,11.00
2023-04-07T14:01:13.451Z,11.00
2023-04-07T14:03:40.300Z,10.90
2023-04-07T14:06:06.950Z,11.00
2023-04-07T14:08:33.943Z,11.20
2023-04-07T14:11:00.963Z,11.20
2023-04-07T14:13:27.535Z,11.40
2023-04-07T14:15:54.236Z,11.50
2023-04-07T14:18:20.958Z,11.50
2023-04-07T14:20:47.625Z,11.80
2023-04-07T14:23:18.634Z,12.30
2023-04-07T14:25:53.061Z,12.50
2023-04-07T14:28:19.651Z,12.70
2023-04-07T14:30:47.077Z,12.80
2023-04-07T14:33:13.831Z,12.70
2023-04-07T14:35:40.583Z,12.70
2023-04-07T14:38:07.212Z,12.90
2023-04-07T14:40:33.889Z,13.10
2023-04-07T14:43:07.305Z,12.80
2023-04-07T14:45:35.619Z,12.50
2023-04-07T14:48:02.646Z,12.40
2023-04-07T14:50:32.557Z,12.40
2023-04-07T14:52:59.713Z,12.70
2023-04-07T14:55:26.291Z,12.70
2023-04-07T14:57:52.925Z,12.60
2023-04-07T15:00:19.597Z,12.40
2023-04-07T15:02:48.944Z,12.60
2023-04-07T15:05:15.852Z,12.90
2023-04-07T15:07:43.859Z,13.10
2023-04-07T15:10:10.559Z,13.40
2023-04-07T15:12:37.130Z,13.10
2023-04-07T15:15:04.158Z,13.00
2023-04-07T15:17:43.213Z,12.80
2023-04-07T15:20:12.619Z,12.70
2023-04-07T15:22:39.486Z,12.50
2023-04-07T15:25:06.586Z,12.40
2023-04-07T15:27:33.328Z,12.20
2023-04-07T15:30:00.555Z,12.00
2023-04-07T15:32:27.426Z,11.80
2023-04-07T15:34:54.082Z,11.60
2023-04-07T15:37:20.945Z,11.80
2023-04-07T15:39:49.484Z,12.10
2023-04-07T15:42:18.316Z,12.00
2023-04-07T15:44:46.906Z,11.80
2023-04-07T15:47:13.567Z,11.80
2023-04-07T15:49:44.166Z,12.30
2023-04-07T15:52:12.145Z,12.50
2023-04-07T15:54:38.744Z,12.30
2023-04-07T15:57:07.627Z,12.50
2023-04-07T15:59:35.933Z,12.70
2023-04-07T16:02:05.592Z,13.00
2023-04-07T16:04:32.198Z,12.80
2023-04-07T16:06:58.789Z,12.60
2023-04-07T16:09:26.069Z,12.70
2023-04-07T16:11:52.715Z,12.70
2023-04-07T16:14:19.460Z,12.40
2023-04-07T16:16:46.186Z,12.40
2023-04-07T16:19:14.370Z,12.50
2023-04-07T16:21:40.973Z,12.50
2023-04-07T16:24:07.699Z,12.70
2023-04-07T16:26:34.378Z,12.70
2023-04-07T16:29:01.076Z,12.60
2023-04-07T16:31:27.717Z,12.80
2023-04-07T16:33:54.635Z,12.70
2023-04-07T16:36:21.404Z,12.40
2023-04-07T16:38:49.619Z,12.40
2023-04-07T16:41:16.621Z,12.20
2023-04-07T16:43:43.352Z,11.90
2023-04-07T16:46:11.744Z,11.80
2023-04-07T16:48:42.458Z,11.70
2023-04-07T16:51:19.358Z,11.60
2023-04-07T16:53:50.721Z,11.50
2023-04-07T16:56:19.084Z,11.60
2023-04-07T16:58:48.072Z,11.60
2023-04-07T17:01:15.155Z,11.50
2023-04-07T17:03:42.361Z,11.40
2023-04-07T17:06:09.221Z,11.20
2023-04-07T17:08:37.034Z,11.10
2023-04-07T17:11:09.594Z,11.10
2023-04-07T17:13:36.494Z,11.10
2023-04-07T17:16:06.772Z,11.10
2023-04-07T17:18:33.824Z,11.00
2023-04-07T17:21:00.725Z,11.00
2023-04-07T17:23:28.265Z,10.90
2023-04-07T17:25:54.971Z,10.80
2023-04-07T17:28:21.657Z,10.80
2023-04-07T17:30:48.390Z,10.80
2023-04-07T17:33:15.023Z,10.70
2023-04-07T17:35:41.712Z,10.60
2023-04-07T17:38:08.483Z,10.70
2023-04-07T17:40:35.116Z,10.70
2023-04-07T17:43:01.846Z,10.70
2023-04-07T17:45:28.579Z,10.70
2023-04-07T17:47:55.381Z,10.70
2023-04-07T17:50:22.230Z,10.60
2023-04-07T17:52:52.627Z,10.50
2023-04-07T17:55:19.496Z,10.40
2023-04-07T17:57:46.598Z,10.30
2023-04-07T18:00:13.597Z,10.30
2023-04-07T18:02:40.964Z,10.30
2023-04-07T18:05:08.262Z,10.30
2023-04-07T18:07:35.030Z,10.20
2023-04-07T18:10:03.181Z,10.20
2023-04-07T18:12:31.855Z,10.10
2023-04-07T18:14:58.603Z,10.10
2023-04-07T18:17:25.530Z,10.10
2023-04-07T18:19:52.299Z,10.00
2023-04-07T18:22:18.999Z,10.00
2023-04-07T18:24:48.266Z,10.00
2023-04-07T18:27:17.264Z,10.00
2023-04-07T18:29:44.065Z,10.00
2023-04-07T18:32:10.716Z,10.00
2023-04-07T18:34:37.597Z,9.90
2023-04-07T18:37:04.569Z,9.90
2023-04-07T18:39:31.416Z,9.90
2023-04-07T18:41:58.150Z,9.90
2023-04-07T18:44:26.170Z,9.90
2023-04-07T18:46:53.686Z,9.90
2023-04-07T18:49:20.645Z,9.90
2023-04-07T18:51:48.191Z,9.90
2023-04-07T18:54:15.404Z,9.90
2023-04-07T18:56:42.059Z,9.80
2023-04-07T18:59:08.964Z,9.80
2023-04-07T19:01:36.509Z,9.80
2023-04-07T19:04:06.005Z,9.80
2023-04-07T19:06:32.970Z,9.80
2023-04-07T19:09:01.750Z,9.70
2023-04-07T19:11:28.598Z,9.70
2023-04-07T19:13:56.416Z,9.70
2023-04-07T19:16:24.672Z,9.70
2023-04-07T19:18:52.503Z,9.70
2023-04-07T19:21:19.835Z,9.70
2023-04-07T19:23:49.625Z,9.60
2023-04-07T19:26:16.781Z,9.60
2023-04-07T19:28:48.115Z,9.50
2023-04-07T19:31:19.547Z,9.60
2023-04-07T19:33:48.053Z,9.50
2023-04-07T19:36:15.280Z,9.60
2023-04-07T19:38:42.109Z,9.50
2023-04-07T19:41:08.924Z,9.50
2023-04-07T19:43:36.527Z,9.50
2023-04-07T19:46:04.897Z,9.50
2023-04-07T19:48:32.445Z,9.50
2023-04-07T19:50:59.253Z,9.50
2023-04-07T19:53:26.605Z,9.50
2023-04-07T19:55:53.540Z,9.50
2023-04-07T19:58:22.020Z,9.40
2023-04-07T20:00:50.726Z,9.40
2023-04-07T20:03:20.880Z,9.40
2023-04-07T20:05:47.573Z,9.40
2023-04-07T20:08:14.353Z,9.40
2023-04-07T20:10:41.183Z,9.40
2023-04-07T20:13:09.055Z,9.30
2023-04-07T20:15:36.062Z,9.30
2023-04-07T20:18:03.511Z,9.30
2023-04-07T20:20:30.222Z,9.30
2023-04-07T20:22:56.830Z,9.30
2023-04-07T20:25:23.687Z,9.40
2023-04-07T20:27:50.477Z,9.40
2023-04-07T20:30:17.864Z,9.40
2023-04-07T20:32:46.757Z,9.40
2023-04-07T20:35:13.531Z,9.30
2023-04-07T20:37:40.366Z,9.30
2023-04-07T20:40:11.116Z,9.30
2023-04-07T20:42:38.390Z,9.30
2023-04-07T20:45:06.357Z,9.40
2023-04-07T20:47:35.909Z,9.30
2023-04-07T20:50:02.772Z,9.30
2023-04-07T20:52:29.495Z,9.20
2023-04-07T20:54:56.505Z,9.20
2023-04-07T20:57:23.064Z,9.10
2023-04-07T20:59:49.707Z,9.00
2023-04-07T21:02:16.682Z,9.10
2023-04-07T21:04:43.431Z,9.20
2023-04-07T21:07:11.073Z,9.20
2023-04-07T21:09:37.771Z,9.20
2023-04-07T21:12:04.592Z,9.10
2023-04-07T21:14:32.120Z,9.10
2023-04-07T21:16:59.469Z,9.10
2023-04-07T21:19:28.951Z,9.00
2023-04-07T21:21:55.548Z,8.90
2023-04-07T21:24:22.441Z,8.90
2023-04-07T21:26:49.718Z,8.90
2023-04-07T21:29:16.484Z,8.70
2023-04-07T21:31:43.208Z,8.70
2023-04-07T21:34:10.016Z,8.70
2023-04-07T21:36:37.079Z,8.60
2023-04-07T21:39:04.412Z,8.50
2023-04-07T21:41:31.206Z,8.50
2023-04-07T21:43:57.834Z,8.50
2023-04-07T21:46:24.423Z,8.50
2023-04-07T21:48:51.271Z,8.40
2023-04-07T21:51:18.294Z,8.50
2023-04-07T21:53:45.020Z,8.40
2023-04-07T21:56:13.089Z,8.40
2023-04-07T21:58:41.824Z,8.40
2023-04-07T22:01:08.541Z,8.40
2023-04-07T22:03:35.535Z,8.40
2023-04-07T22:06:02.350Z,8.40
2023-04-07T22:08:29.082Z,8.40
2023-04-07T22:10:56.679Z,8.50
2023-04-07T22:13:23.326Z,8.50
2023-04-07T22:15:50.483Z,8.50
2023-04-07T22:18:17.305Z,8.50
2023-04-07T22:20:43.939Z,8.50
2023-04-07T22:23:10.654Z,8.50
2023-04-07T22:25:37.255Z,8.50
2023-04-07T22:28:03.848Z,8.40
2023-04-07T22:30:30.630Z,8.40
2023-04-07T22:32:57.235Z,8.40
2023-04-07T22:35:24.038Z,8.50
2023-04-07T22:37:50.837Z,8.50
2023-04-07T22:40:17.511Z,8.40
2023-04-07T22:42:44.160Z,8.40
2023-04-07T22:45:12.623Z,8.40
2023-04-07T22:47:40.243Z,8.50
2023-04-07T22:50:07.704Z,8.50
2023-04-07T22:52:34.344Z,8.50
2023-04-07T22:55:00.985Z,8.40
2023-04-07T22:57:27.738Z,8.50
2023-04-07T22:59:54.605Z,8.50
2023-04-07T23:02:21.407Z,8.40
2023-04-07T23:04:48.764Z,8.40
2023-04-07T23:07:16.028Z,8.40
2023-04-07T23:09:42.638Z,8.40
2023-04-07T23:12:09.230Z,8.40
2023-04-07T23:14:35.767Z,8.40
2023-04-07T23:17:03.020Z,8.40
2023-04-07T23:19:29.688Z,8.40
2023-04-07T23:21:56.252Z,8.40
2023-04-07T23:24:22.892Z,8.50
2023-04-07T23:26:49.470Z,8.50
2023-04-07T23:29:16.176Z,8.50
2023-04-07T23:31:42.743Z,8.40
2023-04-07T23:34:09.465Z,8.40
2023-04-07T23:36:36.464Z,8.40
2023-04-07T23:39:03.769Z,8.30
2023-04-07T23:41:30.445Z,8.20
2023-04-07T23:43:57.203Z,8.20
2023-04-07T23:46:24.325Z,8.30
2023-04-07T23:48:51.254Z,8.30
2023-04-07T23:51:18.143Z,8.30
2023-04-07T23:53:44.759Z,8.20
2023-04-07T23:56:11.471Z,8.20
2023-04-07T23:58:38.221Z,8.10
